sensor_id;sensor_type;location;lat;lon;timestamp;pressure;altitude;pressure_sealevel;temperature;humidity
56270;BME280;42176;43.240;27.880;2023-02-12T00:01:13;101152.66;;;-1.99;69.15
56270;BME280;42176;43.240;27.880;2023-02-12T00:03:39;101150.25;;;-1.35;65.89
56270;BME280;42176;43.240;27.880;2023-02-12T00:06:05;101137.63;;;-1.86;65.22
56270;BME280;42176;43.240;27.880;2023-02-12T00:08:31;101129.50;;;-2.51;67.86
56270;BME280;42176;43.240;27.880;2023-02-12T00:10:56;101144.28;;;-2.31;69.13
56270;BME280;42176;43.240;27.880;2023-02-12T00:13:22;101130.50;;;-2.10;72.01
56270;BME280;42176;43.240;27.880;2023-02-12T00:15:48;101138.84;;;-1.58;65.92
56270;BME280;42176;43.240;27.880;2023-02-12T00:18:14;101130.06;;;-2.39;68.72
56270;BME280;42176;43.240;27.880;2023-02-12T00:20:39;101137.38;;;-2.68;70.55
56270;BME280;42176;43.240;27.880;2023-02-12T00:23:05;101141.56;;;-2.34;72.01
56270;BME280;42176;43.240;27.880;2023-02-12T00:25:31;101132.16;;;-1.32;66.88
56270;BME280;42176;43.240;27.880;2023-02-12T00:27:57;101142.41;;;-1.95;66.19
56270;BME280;42176;43.240;27.880;2023-02-12T00:30:22;101139.22;;;-2.65;71.83
56270;BME280;42176;43.240;27.880;2023-02-12T00:32:48;101140.22;;;-1.04;66.28
56270;BME280;42176;43.240;27.880;2023-02-12T00:35:13;101121.91;;;0.55;57.95
56270;BME280;42176;43.240;27.880;2023-02-12T00:37:39;101130.50;;;-2.10;64.67
56270;BME280;42176;43.240;27.880;2023-02-12T00:40:05;101132.25;;;-2.28;70.77
56270;BME280;42176;43.240;27.880;2023-02-12T00:42:31;101134.94;;;-2.07;70.08
56270;BME280;42176;43.240;27.880;2023-02-12T00:44:56;101124.47;;;-0.65;64.38
56270;BME280;42176;43.240;27.880;2023-02-12T00:47:22;101125.28;;;-1.51;64.85
56270;BME280;42176;43.240;27.880;2023-02-12T00:49:47;101101.72;;;-2.15;67.77
56270;BME280;42176;43.240;27.880;2023-02-12T00:52:12;101122.84;;;-1.67;68.41
56270;BME280;42176;43.240;27.880;2023-02-12T00:54:38;101119.13;;;-0.68;64.24
56270;BME280;42176;43.240;27.880;2023-02-12T00:57:03;101113.63;;;-1.40;64.99
56270;BME280;42176;43.240;27.880;2023-02-12T00:59:29;101099.81;;;-1.99;67.26
56270;BME280;42176;43.240;27.880;2023-02-12T01:01:55;101105.34;;;-1.72;68.83
56270;BME280;42176;43.240;27.880;2023-02-12T01:04:21;101101.53;;;-1.59;69.18
56270;BME280;42176;43.240;27.880;2023-02-12T01:06:47;101096.25;;;-0.75;65.21
56270;BME280;42176;43.240;27.880;2023-02-12T01:09:12;101094.59;;;-1.39;64.49
56270;BME280;42176;43.240;27.880;2023-02-12T01:11:39;101101.53;;;-2.19;68.41
56270;BME280;42176;43.240;27.880;2023-02-12T01:14:05;101101.50;;;-1.80;69.94
56270;BME280;42176;43.240;27.880;2023-02-12T01:16:31;101090.50;;;-1.53;69.00
56270;BME280;42176;43.240;27.880;2023-02-12T01:18:58;101092.19;;;-0.46;64.10
56270;BME280;42176;43.240;27.880;2023-02-12T01:21:26;101093.72;;;-1.39;66.52
56270;BME280;42176;43.240;27.880;2023-02-12T01:23:52;101089.91;;;-1.88;69.13
56270;BME280;42176;43.240;27.880;2023-02-12T01:26:20;101088.63;;;-1.57;70.67
56270;BME280;42176;43.240;27.880;2023-02-12T01:28:52;101087.28;;;-0.84;67.15
56270;BME280;42176;43.240;27.880;2023-02-12T01:31:21;101089.28;;;-1.42;68.84
56270;BME280;42176;43.240;27.880;2023-02-12T01:33:49;101070.13;;;-2.62;73.38
56270;BME280;42176;43.240;27.880;2023-02-12T01:36:15;101094.25;;;-2.26;74.27
56270;BME280;42176;43.240;27.880;2023-02-12T01:38:40;101083.13;;;-1.85;74.41
56270;BME280;42176;43.240;27.880;2023-02-12T01:41:15;101080.38;;;-1.47;68.75
56270;BME280;42176;43.240;27.880;2023-02-12T01:43:41;101076.63;;;-2.34;72.04
56270;BME280;42176;43.240;27.880;2023-02-12T01:46:09;101081.53;;;-2.40;76.40
56270;BME280;42176;43.240;27.880;2023-02-12T01:48:38;101091.38;;;-2.13;77.21
56270;BME280;42176;43.240;27.880;2023-02-12T01:51:06;101074.31;;;-1.26;67.83
56270;BME280;42176;43.240;27.880;2023-02-12T01:53:37;101076.47;;;-1.97;70.91
56270;BME280;42176;43.240;27.880;2023-02-12T01:56:05;101075.31;;;-2.04;73.32
56270;BME280;42176;43.240;27.880;2023-02-12T01:58:42;101076.75;;;-1.91;72.50
56270;BME280;42176;43.240;27.880;2023-02-12T02:01:15;101073.81;;;-1.17;70.92
56270;BME280;42176;43.240;27.880;2023-02-12T02:03:45;101079.06;;;-2.17;73.73
56270;BME280;42176;43.240;27.880;2023-02-12T02:06:17;101075.63;;;-2.55;75.38
56270;BME280;42176;43.240;27.880;2023-02-12T02:08:44;101069.91;;;-2.28;75.90
56270;BME280;42176;43.240;27.880;2023-02-12T02:11:10;101068.97;;;-1.29;70.37
56270;BME280;42176;43.240;27.880;2023-02-12T02:13:54;101073.41;;;-2.08;72.37
56270;BME280;42176;43.240;27.880;2023-02-12T02:16:42;101079.97;;;-2.74;78.24
56270;BME280;42176;43.240;27.880;2023-02-12T02:19:30;101075.44;;;-2.40;79.19
56270;BME280;42176;43.240;27.880;2023-02-12T02:30:25;101072.25;;;-2.15;77.90
56270;BME280;42176;43.240;27.880;2023-02-12T02:35:52;101064.97;;;-1.21;72.18
56270;BME280;42176;43.240;27.880;2023-02-12T02:38:28;101077.72;;;-2.09;74.30
56270;BME280;42176;43.240;27.880;2023-02-12T02:41:07;101076.56;;;-3.09;80.44
56270;BME280;42176;43.240;27.880;2023-02-12T02:43:50;101087.34;;;-2.64;82.86
56270;BME280;42176;43.240;27.880;2023-02-12T02:48:51;101074.91;;;-1.53;75.50
56270;BME280;42176;43.240;27.880;2023-02-12T02:51:25;101078.94;;;-2.40;78.43
56270;BME280;42176;43.240;27.880;2023-02-12T02:56:29;101075.22;;;-2.65;82.03
56270;BME280;42176;43.240;27.880;2023-02-12T02:59:00;101078.19;;;-2.37;81.56
56270;BME280;42176;43.240;27.880;2023-02-12T03:01:31;101080.19;;;-1.92;76.05
56270;BME280;42176;43.240;27.880;2023-02-12T03:04:18;101072.09;;;-2.94;79.79
56270;BME280;42176;43.240;27.880;2023-02-12T03:07:03;101070.19;;;-2.98;86.28
56270;BME280;42176;43.240;27.880;2023-02-12T03:09:39;101067.06;;;-2.91;86.96
56270;BME280;42176;43.240;27.880;2023-02-12T03:12:13;101079.69;;;-1.84;77.65
56270;BME280;42176;43.240;27.880;2023-02-12T03:14:53;101068.50;;;-2.60;78.27
56270;BME280;42176;43.240;27.880;2023-02-12T03:17:34;101081.19;;;-2.48;81.20
56270;BME280;42176;43.240;27.880;2023-02-12T03:20:11;101094.09;;;-2.30;80.86
56270;BME280;42176;43.240;27.880;2023-02-12T03:22:44;101079.63;;;-1.23;72.60
56270;BME280;42176;43.240;27.880;2023-02-12T03:25:17;101065.34;;;-1.95;73.25
56270;BME280;42176;43.240;27.880;2023-02-12T03:30:22;101073.22;;;-1.93;76.16
56270;BME280;42176;43.240;27.880;2023-02-12T03:33:05;101081.09;;;-1.71;75.80
56270;BME280;42176;43.240;27.880;2023-02-12T03:35:46;101067.28;;;-0.85;70.79
56270;BME280;42176;43.240;27.880;2023-02-12T03:38:42;101079.28;;;-1.93;74.47
56270;BME280;42176;43.240;27.880;2023-02-12T03:41:31;101077.66;;;-2.30;79.28
56270;BME280;42176;43.240;27.880;2023-02-12T03:46:59;101072.34;;;-1.11;73.78
56270;BME280;42176;43.240;27.880;2023-02-12T03:49:38;101074.00;;;-1.75;74.57
56270;BME280;42176;43.240;27.880;2023-02-12T03:52:09;101082.56;;;-2.74;78.74
56270;BME280;42176;43.240;27.880;2023-02-12T03:54:34;101082.09;;;-2.27;78.86
56270;BME280;42176;43.240;27.880;2023-02-12T03:57:06;101074.16;;;-2.11;77.90
56270;BME280;42176;43.240;27.880;2023-02-12T03:59:34;101061.81;;;-0.91;72.81
56270;BME280;42176;43.240;27.880;2023-02-12T04:02:00;101064.13;;;-1.62;72.59
56270;BME280;42176;43.240;27.880;2023-02-12T04:04:26;101075.66;;;-2.36;76.67
56270;BME280;42176;43.240;27.880;2023-02-12T04:06:53;101080.66;;;-2.01;77.41
56270;BME280;42176;43.240;27.880;2023-02-12T04:09:20;101069.84;;;-1.08;73.24
56270;BME280;42176;43.240;27.880;2023-02-12T04:14:42;101081.44;;;-2.04;75.04
56270;BME280;42176;43.240;27.880;2023-02-12T04:17:10;101087.69;;;-1.79;75.17
56270;BME280;42176;43.240;27.880;2023-02-12T04:19:44;101083.78;;;-0.84;71.52
56270;BME280;42176;43.240;27.880;2023-02-12T04:24:49;101092.06;;;-2.37;76.68
56270;BME280;42176;43.240;27.880;2023-02-12T04:27:36;101086.72;;;-2.01;76.20
56270;BME280;42176;43.240;27.880;2023-02-12T04:30:31;101084.94;;;-1.20;73.51
56270;BME280;42176;43.240;27.880;2023-02-12T04:33:01;101095.16;;;-1.87;73.65
56270;BME280;42176;43.240;27.880;2023-02-12T04:35:36;101098.94;;;-2.57;79.31
56270;BME280;42176;43.240;27.880;2023-02-12T04:38:09;101090.56;;;-1.11;73.02
56270;BME280;42176;43.240;27.880;2023-02-12T04:40:38;101103.38;;;0.21;62.13
56270;BME280;42176;43.240;27.880;2023-02-12T04:43:04;101111.25;;;-2.71;73.76
56270;BME280;42176;43.240;27.880;2023-02-12T04:45:31;101101.91;;;-2.85;80.57
56270;BME280;42176;43.240;27.880;2023-02-12T04:47:57;101116.00;;;-2.62;81.54
56270;BME280;42176;43.240;27.880;2023-02-12T04:50:24;101111.88;;;-2.39;81.98
56270;BME280;42176;43.240;27.880;2023-02-12T04:52:49;101104.31;;;-1.34;74.07
56270;BME280;42176;43.240;27.880;2023-02-12T04:55:15;101112.47;;;-2.07;78.01
56270;BME280;42176;43.240;27.880;2023-02-12T04:57:41;101120.63;;;-2.17;80.18
56270;BME280;42176;43.240;27.880;2023-02-12T05:00:08;101122.97;;;-1.84;81.08
56270;BME280;42176;43.240;27.880;2023-02-12T05:02:35;101114.84;;;-1.10;78.57
56270;BME280;42176;43.240;27.880;2023-02-12T05:05:01;101119.09;;;-1.33;77.23
56270;BME280;42176;43.240;27.880;2023-02-12T05:07:26;101124.72;;;-1.85;80.92
56270;BME280;42176;43.240;27.880;2023-02-12T05:09:52;101129.56;;;-1.73;84.05
56270;BME280;42176;43.240;27.880;2023-02-12T05:12:17;101120.75;;;-1.55;83.26
56270;BME280;42176;43.240;27.880;2023-02-12T05:14:43;101132.59;;;-1.21;81.92
56270;BME280;42176;43.240;27.880;2023-02-12T05:17:08;101127.63;;;-0.95;78.30
56270;BME280;42176;43.240;27.880;2023-02-12T05:19:33;101146.09;;;-1.51;81.03
56270;BME280;42176;43.240;27.880;2023-02-12T05:21:59;101140.78;;;-1.93;86.02
56270;BME280;42176;43.240;27.880;2023-02-12T05:24:24;101140.34;;;-1.63;85.84
56270;BME280;42176;43.240;27.880;2023-02-12T05:26:50;101146.56;;;-0.55;81.36
56270;BME280;42176;43.240;27.880;2023-02-12T05:29:16;101147.53;;;-1.17;80.98
56270;BME280;42176;43.240;27.880;2023-02-12T05:31:42;101155.00;;;-1.85;84.71
56270;BME280;42176;43.240;27.880;2023-02-12T05:34:10;101154.47;;;-1.58;85.44
56270;BME280;42176;43.240;27.880;2023-02-12T05:36:36;101155.13;;;-1.43;84.70
56270;BME280;42176;43.240;27.880;2023-02-12T05:39:02;101154.16;;;-0.60;81.37
56270;BME280;42176;43.240;27.880;2023-02-12T05:41:28;101167.97;;;-1.26;81.33
56270;BME280;42176;43.240;27.880;2023-02-12T05:43:53;101178.66;;;-1.99;85.97
56270;BME280;42176;43.240;27.880;2023-02-12T05:46:20;101178.53;;;-1.62;87.47
56270;BME280;42176;43.240;27.880;2023-02-12T05:48:46;101183.03;;;-1.39;86.42
56270;BME280;42176;43.240;27.880;2023-02-12T05:51:17;101179.88;;;-0.47;82.32
56270;BME280;42176;43.240;27.880;2023-02-12T05:53:46;101182.16;;;-0.98;81.36
56270;BME280;42176;43.240;27.880;2023-02-12T05:56:18;101186.88;;;-1.70;85.66
56270;BME280;42176;43.240;27.880;2023-02-12T05:58:51;101180.53;;;-0.73;84.79
56270;BME280;42176;43.240;27.880;2023-02-12T06:01:20;101192.00;;;-0.03;79.63
56270;BME280;42176;43.240;27.880;2023-02-12T06:03:46;101189.31;;;-0.71;80.23
56270;BME280;42176;43.240;27.880;2023-02-12T06:06:12;101180.81;;;-1.70;85.08
56270;BME280;42176;43.240;27.880;2023-02-12T06:08:38;101190.94;;;-1.16;86.40
56270;BME280;42176;43.240;27.880;2023-02-12T06:11:05;101190.97;;;-0.07;82.35
56270;BME280;42176;43.240;27.880;2023-02-12T06:13:32;101203.56;;;-0.63;80.83
56270;BME280;42176;43.240;27.880;2023-02-12T06:15:58;101207.94;;;-1.24;84.45
56270;BME280;42176;43.240;27.880;2023-02-12T06:18:24;101199.56;;;-0.53;84.19
56270;BME280;42176;43.240;27.880;2023-02-12T06:20:49;101204.06;;;-0.05;81.98
56270;BME280;42176;43.240;27.880;2023-02-12T06:23:15;101203.47;;;0.73;77.29
56270;BME280;42176;43.240;27.880;2023-02-12T06:25:40;101178.22;;;0.01;76.04
56270;BME280;42176;43.240;27.880;2023-02-12T06:28:06;101199.34;;;-0.59;80.53
56270;BME280;42176;43.240;27.880;2023-02-12T06:30:33;101199.78;;;-0.26;82.12
56270;BME280;42176;43.240;27.880;2023-02-12T06:32:59;101208.66;;;0.25;79.67
56270;BME280;42176;43.240;27.880;2023-02-12T06:35:25;101215.97;;;0.82;76.61
56270;BME280;42176;43.240;27.880;2023-02-12T06:37:51;101217.41;;;0.50;73.73
56270;BME280;42176;43.240;27.880;2023-02-12T06:40:16;101209.34;;;-0.26;79.12
56270;BME280;42176;43.240;27.880;2023-02-12T06:42:42;101222.38;;;-0.04;82.29
56270;BME280;42176;43.240;27.880;2023-02-12T06:45:08;101223.09;;;0.88;79.53
56270;BME280;42176;43.240;27.880;2023-02-12T06:47:33;101221.22;;;1.10;73.26
56270;BME280;42176;43.240;27.880;2023-02-12T06:49:58;101223.13;;;0.39;77.74
56270;BME280;42176;43.240;27.880;2023-02-12T06:52:24;101220.78;;;0.71;79.89
56270;BME280;42176;43.240;27.880;2023-02-12T06:54:49;101211.53;;;1.59;76.46
56270;BME280;42176;43.240;27.880;2023-02-12T06:57:15;101194.00;;;1.56;71.12
56270;BME280;42176;43.240;27.880;2023-02-12T06:59:40;101209.03;;;1.09;74.46
56270;BME280;42176;43.240;27.880;2023-02-12T07:02:06;101212.66;;;1.40;75.58
56270;BME280;42176;43.240;27.880;2023-02-12T07:04:31;101227.09;;;2.12;72.07
56270;BME280;42176;43.240;27.880;2023-02-12T07:06:56;101208.69;;;1.80;69.81
56270;BME280;42176;43.240;27.880;2023-02-12T07:09:22;101219.41;;;1.07;74.69
56270;BME280;42176;43.240;27.880;2023-02-12T07:11:47;101209.41;;;1.47;75.18
56270;BME280;42176;43.240;27.880;2023-02-12T07:14:14;101220.94;;;2.10;71.92
56270;BME280;42176;43.240;27.880;2023-02-12T07:16:40;101225.56;;;1.62;71.28
56270;BME280;42176;43.240;27.880;2023-02-12T07:19:05;101222.97;;;1.09;74.00
56270;BME280;42176;43.240;27.880;2023-02-12T07:21:31;101226.25;;;1.29;75.48
56270;BME280;42176;43.240;27.880;2023-02-12T07:23:57;101221.88;;;1.83;73.82
56270;BME280;42176;43.240;27.880;2023-02-12T07:26:22;101224.94;;;2.27;69.23
56270;BME280;42176;43.240;27.880;2023-02-12T07:28:49;101230.31;;;1.47;75.13
56270;BME280;42176;43.240;27.880;2023-02-12T07:31:16;101230.06;;;1.66;74.38
56270;BME280;42176;43.240;27.880;2023-02-12T07:33:42;101227.09;;;2.12;69.47
56270;BME280;42176;43.240;27.880;2023-02-12T07:36:11;101236.31;;;2.58;67.25
56270;BME280;42176;43.240;27.880;2023-02-12T07:38:37;101237.66;;;2.76;65.22
56270;BME280;42176;43.240;27.880;2023-02-12T07:41:30;101234.41;;;1.95;69.33
56270;BME280;42176;43.240;27.880;2023-02-12T07:43:58;101233.91;;;2.07;70.39
56270;BME280;42176;43.240;27.880;2023-02-12T07:46:27;101239.09;;;2.65;67.61
56270;BME280;42176;43.240;27.880;2023-02-12T07:49:01;101239.78;;;2.89;65.44
56270;BME280;42176;43.240;27.880;2023-02-12T07:51:28;101235.59;;;2.05;68.60
56270;BME280;42176;43.240;27.880;2023-02-12T07:53:54;101249.91;;;2.16;69.27
56270;BME280;42176;43.240;27.880;2023-02-12T07:56:23;101250.03;;;2.82;66.73
56270;BME280;42176;43.240;27.880;2023-02-12T07:58:51;101252.28;;;3.33;64.67
56270;BME280;42176;43.240;27.880;2023-02-12T08:01:21;101254.38;;;2.81;63.12
56270;BME280;42176;43.240;27.880;2023-02-12T08:03:47;101257.88;;;2.50;66.81
56270;BME280;42176;43.240;27.880;2023-02-12T08:06:16;101247.50;;;3.17;64.01
56270;BME280;42176;43.240;27.880;2023-02-12T08:08:43;101258.44;;;3.71;60.86
56270;BME280;42176;43.240;27.880;2023-02-12T08:11:10;101273.28;;;2.69;65.19
56270;BME280;42176;43.240;27.880;2023-02-12T08:13:36;101273.28;;;2.11;68.99
56270;BME280;42176;43.240;27.880;2023-02-12T08:16:04;101273.81;;;2.89;65.84
56270;BME280;42176;43.240;27.880;2023-02-12T08:18:31;101268.53;;;3.55;63.61
56270;BME280;42176;43.240;27.880;2023-02-12T08:21:08;101268.59;;;3.93;60.55
56270;BME280;42176;43.240;27.880;2023-02-12T08:23:34;101272.25;;;4.00;58.73
56270;BME280;42176;43.240;27.880;2023-02-12T08:28:40;101282.66;;;2.32;68.34
56270;BME280;42176;43.240;27.880;2023-02-12T08:31:09;101278.63;;;3.06;65.19
56270;BME280;42176;43.240;27.880;2023-02-12T08:33:35;101276.88;;;3.75;62.33
56270;BME280;42176;43.240;27.880;2023-02-12T08:36:02;101278.09;;;3.18;61.99
56270;BME280;42176;43.240;27.880;2023-02-12T08:38:30;101266.53;;;2.47;66.24
56270;BME280;42176;43.240;27.880;2023-02-12T08:40:55;101286.22;;;3.29;65.21
56270;BME280;42176;43.240;27.880;2023-02-12T08:43:21;101275.56;;;3.93;62.41
56270;BME280;42176;43.240;27.880;2023-02-12T08:45:46;101281.84;;;4.39;60.47
56270;BME280;42176;43.240;27.880;2023-02-12T08:48:11;101276.31;;;4.68;58.11
56270;BME280;42176;43.240;27.880;2023-02-12T08:50:37;101274.22;;;4.95;56.92
56270;BME280;42176;43.240;27.880;2023-02-12T08:53:03;101284.09;;;4.62;56.93
56270;BME280;42176;43.240;27.880;2023-02-12T08:55:28;101284.84;;;3.43;62.23
56270;BME280;42176;43.240;27.880;2023-02-12T08:57:54;101285.22;;;3.59;64.40
56270;BME280;42176;43.240;27.880;2023-02-12T09:00:22;101283.63;;;4.40;60.79
56270;BME280;42176;43.240;27.880;2023-02-12T09:02:47;101288.97;;;4.86;57.93
56270;BME280;42176;43.240;27.880;2023-02-12T09:05:13;101293.06;;;3.94;61.73
56270;BME280;42176;43.240;27.880;2023-02-12T09:07:38;101288.41;;;4.19;61.63
56270;BME280;42176;43.240;27.880;2023-02-12T09:10:04;101291.53;;;4.85;58.76
56270;BME280;42176;43.240;27.880;2023-02-12T09:12:31;101297.81;;;4.09;60.17
56270;BME280;42176;43.240;27.880;2023-02-12T09:14:57;101290.53;;;4.35;60.58
56270;BME280;42176;43.240;27.880;2023-02-12T09:17:22;101308.16;;;4.82;58.77
56270;BME280;42176;43.240;27.880;2023-02-12T09:19:52;101308.44;;;4.55;58.10
56270;BME280;42176;43.240;27.880;2023-02-12T09:22:18;101295.81;;;3.99;61.15
56270;BME280;42176;43.240;27.880;2023-02-12T09:24:43;101308.09;;;4.39;59.84
56270;BME280;42176;43.240;27.880;2023-02-12T09:27:09;101318.09;;;4.97;57.61
56270;BME280;42176;43.240;27.880;2023-02-12T09:29:34;101313.56;;;4.09;60.57
56270;BME280;42176;43.240;27.880;2023-02-12T09:32:00;101314.22;;;4.00;62.61
56270;BME280;42176;43.240;27.880;2023-02-12T09:34:29;101320.72;;;4.56;61.67
56270;BME280;42176;43.240;27.880;2023-02-12T09:36:55;101318.78;;;4.88;60.07
56270;BME280;42176;43.240;27.880;2023-02-12T09:39:20;101299.06;;;4.66;60.02
56270;BME280;42176;43.240;27.880;2023-02-12T09:47:35;101311.59;;;4.80;61.73
56270;BME280;42176;43.240;27.880;2023-02-12T09:50:22;101310.53;;;5.14;60.21
56270;BME280;42176;43.240;27.880;2023-02-12T09:52:52;101306.34;;;5.24;58.72
56270;BME280;42176;43.240;27.880;2023-02-12T09:55:19;101308.91;;;3.97;64.14
56270;BME280;42176;43.240;27.880;2023-02-12T09:57:46;101321.81;;;3.88;66.94
56270;BME280;42176;43.240;27.880;2023-02-12T10:00:21;101328.09;;;3.96;66.73
56270;BME280;42176;43.240;27.880;2023-02-12T10:02:51;101321.53;;;4.14;66.91
56270;BME280;42176;43.240;27.880;2023-02-12T10:05:57;101329.66;;;4.64;63.80
56270;BME280;42176;43.240;27.880;2023-02-12T10:08:44;101310.50;;;3.55;67.64
56270;BME280;42176;43.240;27.880;2023-02-12T10:27:14;101318.84;;;3.75;66.17
56270;BME280;42176;43.240;27.880;2023-02-12T10:29:42;101316.25;;;3.40;68.55
56270;BME280;42176;43.240;27.880;2023-02-12T10:32:26;101322.66;;;3.87;68.92
56270;BME280;42176;43.240;27.880;2023-02-12T10:34:54;101328.16;;;4.36;64.65
56270;BME280;42176;43.240;27.880;2023-02-12T10:38:03;101329.44;;;3.11;69.17
56270;BME280;42176;43.240;27.880;2023-02-12T10:40:31;101332.56;;;3.63;69.17
56270;BME280;42176;43.240;27.880;2023-02-12T10:43:00;101325.00;;;4.13;65.73
56270;BME280;42176;43.240;27.880;2023-02-12T10:48:00;101317.38;;;4.63;61.69
56270;BME280;42176;43.240;27.880;2023-02-12T10:50:39;101328.94;;;3.58;66.23
56270;BME280;42176;43.240;27.880;2023-02-12T10:53:14;101333.16;;;3.87;67.17
56270;BME280;42176;43.240;27.880;2023-02-12T10:55:41;101336.72;;;4.27;64.92
56270;BME280;42176;43.240;27.880;2023-02-12T10:58:21;101335.47;;;4.49;64.05
56270;BME280;42176;43.240;27.880;2023-02-12T11:00:55;101334.94;;;4.66;63.31
56270;BME280;42176;43.240;27.880;2023-02-12T11:03:26;101347.47;;;4.78;62.05
56270;BME280;42176;43.240;27.880;2023-02-12T11:05:52;101342.31;;;4.84;62.19
56270;BME280;42176;43.240;27.880;2023-02-12T11:08:35;101354.22;;;5.09;62.51
56270;BME280;42176;43.240;27.880;2023-02-12T11:11:09;101354.44;;;5.20;62.58
56270;BME280;42176;43.240;27.880;2023-02-12T11:13:36;101349.63;;;4.97;62.63
56270;BME280;42176;43.240;27.880;2023-02-12T11:16:03;101349.34;;;3.70;67.79
56270;BME280;42176;43.240;27.880;2023-02-12T11:18:31;101345.72;;;4.00;68.21
56270;BME280;42176;43.240;27.880;2023-02-12T11:21:06;101350.19;;;4.42;63.71
56270;BME280;42176;43.240;27.880;2023-02-12T11:23:40;101344.44;;;4.59;60.55
56270;BME280;42176;43.240;27.880;2023-02-12T11:26:27;101355.34;;;3.66;65.15
56270;BME280;42176;43.240;27.880;2023-02-12T11:28:56;101348.22;;;3.95;64.27
56270;BME280;42176;43.240;27.880;2023-02-12T11:31:30;101354.00;;;4.57;59.48
56270;BME280;42176;43.240;27.880;2023-02-12T11:34:14;101361.00;;;3.81;62.19
56270;BME280;42176;43.240;27.880;2023-02-12T11:36:46;101355.16;;;4.30;61.63
56270;BME280;42176;43.240;27.880;2023-02-12T11:41:43;101352.03;;;4.88;56.98
56270;BME280;42176;43.240;27.880;2023-02-12T11:46:52;101322.97;;;4.80;55.15
56270;BME280;42176;43.240;27.880;2023-02-12T11:49:39;101357.50;;;4.97;55.32
56270;BME280;42176;43.240;27.880;2023-02-12T11:52:05;101349.88;;;4.68;55.56
56270;BME280;42176;43.240;27.880;2023-02-12T11:54:40;101361.16;;;3.54;60.48
56270;BME280;42176;43.240;27.880;2023-02-12T11:57:06;101354.97;;;3.86;62.10
56270;BME280;42176;43.240;27.880;2023-02-12T11:59:35;101349.84;;;4.27;59.99
56270;BME280;42176;43.240;27.880;2023-02-12T12:02:22;101357.38;;;4.50;59.14
56270;BME280;42176;43.240;27.880;2023-02-12T12:04:52;101369.09;;;4.66;58.40
56270;BME280;42176;43.240;27.880;2023-02-12T12:07:26;101351.66;;;4.69;58.08
56270;BME280;42176;43.240;27.880;2023-02-12T12:12:53;101374.88;;;3.44;64.36
56270;BME280;42176;43.240;27.880;2023-02-12T12:15:24;101379.72;;;3.62;65.74
56270;BME280;42176;43.240;27.880;2023-02-12T12:18:43;101366.69;;;4.00;64.96
56270;BME280;42176;43.240;27.880;2023-02-12T12:21:56;101367.00;;;4.13;63.79
56270;BME280;42176;43.240;27.880;2023-02-12T12:24:34;101360.75;;;3.72;64.26
56270;BME280;42176;43.240;27.880;2023-02-12T12:27:47;101384.94;;;2.98;70.48
56270;BME280;42176;43.240;27.880;2023-02-12T12:30:47;101377.94;;;3.61;68.30
56270;BME280;42176;43.240;27.880;2023-02-12T12:52:55;101400.34;;;4.17;69.10
56270;BME280;42176;43.240;27.880;2023-02-12T13:06:12;101402.81;;;3.11;73.04
56270;BME280;42176;43.240;27.880;2023-02-12T13:14:34;101425.22;;;3.64;74.41
56270;BME280;42176;43.240;27.880;2023-02-12T13:19:57;101428.63;;;3.93;72.12
56270;BME280;42176;43.240;27.880;2023-02-12T13:27:59;101433.78;;;2.96;77.46
56270;BME280;42176;43.240;27.880;2023-02-12T13:30:30;101435.00;;;3.07;80.54
56270;BME280;42176;43.240;27.880;2023-02-12T13:33:17;101433.69;;;3.54;78.47
56270;BME280;42176;43.240;27.880;2023-02-12T13:35:46;101450.34;;;3.88;76.19
56270;BME280;42176;43.240;27.880;2023-02-12T13:38:21;101457.69;;;3.37;78.40
56270;BME280;42176;43.240;27.880;2023-02-12T13:40:47;101452.69;;;2.58;81.03
56270;BME280;42176;43.240;27.880;2023-02-12T13:43:32;101454.28;;;2.80;84.45
56270;BME280;42176;43.240;27.880;2023-02-12T13:46:24;101463.19;;;3.78;79.67
56270;BME280;42176;43.240;27.880;2023-02-12T13:49:31;101471.53;;;3.33;79.13
56270;BME280;42176;43.240;27.880;2023-02-12T13:51:51;101475.41;;;2.32;85.35
56270;BME280;42176;43.240;27.880;2023-02-12T13:57:08;101482.44;;;3.47;82.57
56270;BME280;42176;43.240;27.880;2023-02-12T13:59:38;101478.03;;;2.86;85.20
56270;BME280;42176;43.240;27.880;2023-02-12T14:02:23;101480.38;;;2.77;88.77
56270;BME280;42176;43.240;27.880;2023-02-12T14:04:56;101482.53;;;3.19;88.09
56270;BME280;42176;43.240;27.880;2023-02-12T14:07:44;101478.81;;;3.43;86.40
56270;BME280;42176;43.240;27.880;2023-02-12T14:10:24;101491.06;;;3.73;85.35
56270;BME280;42176;43.240;27.880;2023-02-12T14:12:52;101484.69;;;3.04;88.52
56270;BME280;42176;43.240;27.880;2023-02-12T14:17:55;101500.00;;;2.37;100.00
56270;BME280;42176;43.240;27.880;2023-02-12T14:20:37;101502.41;;;2.84;99.21
56270;BME280;42176;43.240;27.880;2023-02-12T14:23:25;101504.78;;;3.34;96.06
56270;BME280;42176;43.240;27.880;2023-02-12T14:31:30;101504.81;;;2.24;100.00
56270;BME280;42176;43.240;27.880;2023-02-12T14:39:04;101536.31;;;2.79;95.29
56270;BME280;42176;43.240;27.880;2023-02-12T14:41:36;101528.25;;;1.95;98.60
56270;BME280;42176;43.240;27.880;2023-02-12T14:49:33;101545.66;;;2.45;96.91
56270;BME280;42176;43.240;27.880;2023-02-12T14:57:09;101539.66;;;4.24;90.31
56270;BME280;42176;43.240;27.880;2023-02-12T14:59:40;101545.91;;;2.53;91.87
56270;BME280;42176;43.240;27.880;2023-02-12T15:02:16;101535.13;;;1.69;100.00
56270;BME280;42176;43.240;27.880;2023-02-12T15:04:46;101499.00;;;2.07;100.00
56270;BME280;42176;43.240;27.880;2023-02-12T15:07:48;101557.16;;;3.03;94.81
56270;BME280;42176;43.240;27.880;2023-02-12T15:10:16;101557.56;;;2.37;96.62
56270;BME280;42176;43.240;27.880;2023-02-12T15:12:47;101575.03;;;2.12;99.33
56270;BME280;42176;43.240;27.880;2023-02-12T15:15:24;101584.59;;;2.62;97.43
56270;BME280;42176;43.240;27.880;2023-02-12T15:17:58;101591.25;;;3.05;92.42